sensor_id;sensor_type;location;lat;lon;timestamp;temperature;humidity
2314;DHT22;42279;51.388;7.000;2023-07-13T05:14:03;18.20;99.90
2314;DHT22;42279;51.388;7.000;2023-07-13T05:23:13;18.10;99.90
2314;DHT22;42279;51.388;7.000;2023-07-13T05:52:51;18.50;99.90
2314;DHT22;42279;51.388;7.000;2023-07-13T11:28:49;27.50;60.10
2314;DHT22;42279;51.388;7.000;2023-07-13T11:51:06;30.10;54.70
2314;DHT22;42279;51.388;7.000;2023-07-13T11:53:48;30.60;53.00
2314;DHT22;42279;51.388;7.000;2023-07-13T11:56:18;31.10;52.00
2314;DHT22;42279;51.388;7.000;2023-07-13T11:58:44;31.30;51.00
2314;DHT22;42279;51.388;7.000;2023-07-13T12:01:21;31.10;50.30
2314;DHT22;42279;51.388;7.000;2023-07-13T12:03:48;32.00;50.60
2314;DHT22;42279;51.388;7.000;2023-07-13T12:06:34;31.80;50.20
2314;DHT22;42279;51.388;7.000;2023-07-13T12:09:13;32.10;50.20
2314;DHT22;42279;51.388;7.000;2023-07-13T12:11:46;32.40;49.70
2314;DHT22;42279;51.388;7.000;2023-07-13T12:14:15;32.20;48.70
2314;DHT22;42279;51.388;7.000;2023-07-13T12:16:42;31.70;48.00
2314;DHT22;42279;51.388;7.000;2023-07-13T12:19:38;30.70;49.00
2314;DHT22;42279;51.388;7.000;2023-07-13T12:22:10;30.00;49.80
2314;DHT22;42279;51.388;7.000;2023-07-13T12:43:38;26.80;54.30
2314;DHT22;42279;51.388;7.000;2023-07-13T12:46:20;27.60;53.70
2314;DHT22;42279;51.388;7.000;2023-07-13T12:48:53;27.40;52.40
2314;DHT22;42279;51.388;7.000;2023-07-13T12:51:22;27.90;50.60
2314;DHT22;42279;51.388;7.000;2023-07-13T12:53:55;28.10;51.10
2314;DHT22;42279;51.388;7.000;2023-07-13T12:56:26;28.60;51.50
2314;DHT22;42279;51.388;7.000;2023-07-13T12:59:01;28.70;50.90
2314;DHT22;42279;51.388;7.000;2023-07-13T13:25:02;24.30;58.40
2314;DHT22;42279;51.388;7.000;2023-07-13T13:27:27;24.20;58.30
2314;DHT22;42279;51.388;7.000;2023-07-13T13:29:59;24.30;58.70
2314;DHT22;42279;51.388;7.000;2023-07-13T13:32:25;24.70;58.90
2314;DHT22;42279;51.388;7.000;2023-07-13T13:34:51;25.40;58.50
2314;DHT22;42279;51.388;7.000;2023-07-13T13:37:22;26.00;56.70
2314;DHT22;42279;51.388;7.000;2023-07-13T13:39:49;26.50;56.40
2314;DHT22;42279;51.388;7.000;2023-07-13T13:42:16;27.30;54.40
2314;DHT22;42279;51.388;7.000;2023-07-13T13:44:41;27.50;54.40
2314;DHT22;42279;51.388;7.000;2023-07-13T13:47:36;28.60;54.00
2314;DHT22;42279;51.388;7.000;2023-07-13T13:50:16;29.50;52.30
2314;DHT22;42279;51.388;7.000;2023-07-13T13:52:43;29.20;52.20
2314;DHT22;42279;51.388;7.000;2023-07-13T13:55:19;28.90;52.50
2314;DHT22;42279;51.388;7.000;2023-07-13T13:57:46;28.50;52.90
2314;DHT22;42279;51.388;7.000;2023-07-13T14:00:13;28.00;52.60
2314;DHT22;42279;51.388;7.000;2023-07-13T14:19:43;25.10;61.40
2314;DHT22;42279;51.388;7.000;2023-07-13T14:22:11;25.40;60.30
2314;DHT22;42279;51.388;7.000;2023-07-13T14:24:37;25.60;59.90
2314;DHT22;42279;51.388;7.000;2023-07-13T14:27:03;26.40;59.60
2314;DHT22;42279;51.388;7.000;2023-07-13T14:29:28;27.50;58.00
2314;DHT22;42279;51.388;7.000;2023-07-13T14:31:57;28.50;56.10
2314;DHT22;42279;51.388;7.000;2023-07-13T14:34:23;28.90;53.90
2314;DHT22;42279;51.388;7.000;2023-07-13T14:36:49;28.90;52.80
2314;DHT22;42279;51.388;7.000;2023-07-13T14:39:23;28.60;55.40
2314;DHT22;42279;51.388;7.000;2023-07-13T14:41:56;28.50;57.00
2314;DHT22;42279;51.388;7.000;2023-07-13T14:44:27;28.10;57.40
2314;DHT22;42279;51.388;7.000;2023-07-13T14:46:55;27.80;58.00
2314;DHT22;42279;51.388;7.000;2023-07-13T14:49:35;27.70;59.00
2314;DHT22;42279;51.388;7.000;2023-07-13T14:52:18;27.30;59.60
2314;DHT22;42279;51.388;7.000;2023-07-13T14:54:49;27.30;60.90
2314;DHT22;42279;51.388;7.000;2023-07-13T15:14:06;26.30;67.40
2314;DHT22;42279;51.388;7.000;2023-07-13T15:16:31;26.00;68.60
2314;DHT22;42279;51.388;7.000;2023-07-13T15:18:58;25.80;71.10
2314;DHT22;42279;51.388;7.000;2023-07-13T15:21:28;25.40;71.20
2314;DHT22;42279;51.388;7.000;2023-07-13T15:24:00;25.40;72.90
2314;DHT22;42279;51.388;7.000;2023-07-13T15:26:26;25.20;74.40
2314;DHT22;42279;51.388;7.000;2023-07-13T15:28:52;24.90;75.70
2314;DHT22;42279;51.388;7.000;2023-07-13T15:31:22;24.70;88.40
2314;DHT22;42279;51.388;7.000;2023-07-13T15:33:50;24.10;93.40
2314;DHT22;42279;51.388;7.000;2023-07-13T15:36:17;23.50;99.90
2314;DHT22;42279;51.388;7.000;2023-07-13T15:38:43;23.20;99.90
2314;DHT22;42279;51.388;7.000;2023-07-13T15:41:23;22.60;99.90
2314;DHT22;42279;51.388;7.000;2023-07-13T15:43:54;22.00;99.90
2314;DHT22;42279;51.388;7.000;2023-07-13T15:46:21;21.30;99.90
2314;DHT22;42279;51.388;7.000;2023-07-13T15:48:52;21.20;99.90
2314;DHT22;42279;51.388;7.000;2023-07-13T15:51:29;21.10;99.90
2314;DHT22;42279;51.388;7.000;2023-07-13T15:53:58;21.10;99.90
2314;DHT22;42279;51.388;7.000;2023-07-13T15:56:36;21.10;99.90
2314;DHT22;42279;51.388;7.000;2023-07-13T16:05:49;21.60;99.90
2314;DHT22;42279;51.388;7.000;2023-07-13T16:08:27;21.70;99.90
2314;DHT22;42279;51.388;7.000;2023-07-13T16:11:00;21.70;99.90
2314;DHT22;42279;51.388;7.000;2023-07-13T16:13:26;21.90;99.90
2314;DHT22;42279;51.388;7.000;2023-07-13T16:15:53;21.80;99.90
2314;DHT22;42279;51.388;7.000;2023-07-13T16:18:21;21.80;99.90
2314;DHT22;42279;51.388;7.000;2023-07-13T16:20:47;21.70;99.90
2314;DHT22;42279;51.388;7.000;2023-07-13T16:23:15;21.60;99.90
2314;DHT22;42279;51.388;7.000;2023-07-13T16:25:41;21.70;99.90
2314;DHT22;42279;51.388;7.000;2023-07-13T16:28:09;21.70;99.90
2314;DHT22;42279;51.388;7.000;2023-07-13T16:30:36;21.70;99.90
2314;DHT22;42279;51.388;7.000;2023-07-13T16:33:03;21.60;99.90
2314;DHT22;42279;51.388;7.000;2023-07-13T16:35:35;21.70;99.90
2314;DHT22;42279;51.388;7.000;2023-07-13T16:38:02;21.70;99.90
2314;DHT22;42279;51.388;7.000;2023-07-13T16:40:33;21.70;99.90
2314;DHT22;42279;51.388;7.000;2023-07-13T16:43:00;21.70;99.90
2314;DHT22;42279;51.388;7.000;2023-07-13T16:45:30;21.80;99.90
2314;DHT22;42279;51.388;7.000;2023-07-13T16:48:01;22.00;99.90
2314;DHT22;42279;51.388;7.000;2023-07-13T16:50:31;22.10;99.90
2314;DHT22;42279;51.388;7.000;2023-07-13T16:52:57;22.10;99.90
2314;DHT22;42279;51.388;7.000;2023-07-13T16:55:25;22.00;99.90
2314;DHT22;42279;51.388;7.000;2023-07-13T16:58:03;22.00;99.90
2314;DHT22;42279;51.388;7.000;2023-07-13T17:00:32;22.10;99.90
2314;DHT22;42279;51.388;7.000;2023-07-13T17:03:01;22.00;99.90
2314;DHT22;42279;51.388;7.000;2023-07-13T17:05:42;22.10;99.90
2314;DHT22;42279;51.388;7.000;2023-07-13T17:08:31;22.00;99.90
2314;DHT22;42279;51.388;7.000;2023-07-13T17:10:59;22.10;99.90
2314;DHT22;42279;51.388;7.000;2023-07-13T17:13:26;22.00;99.90
2314;DHT22;42279;51.388;7.000;2023-07-13T17:15:54;21.90;99.90
2314;DHT22;42279;51.388;7.000;2023-07-13T17:18:25;21.90;99.90
2314;DHT22;42279;51.388;7.000;2023-07-13T17:20:53;21.80;99.90
2314;DHT22;42279;51.388;7.000;2023-07-13T17:23:25;21.80;99.90
2314;DHT22;42279;51.388;7.000;2023-07-13T17:25:51;21.70;99.90
2314;DHT22;42279;51.388;7.000;2023-07-13T17:45:33;21.20;99.90
2314;DHT22;42279;51.388;7.000;2023-07-13T17:48:02;21.30;99.90
2314;DHT22;42279;51.388;7.000;2023-07-13T17:50:33;21.30;99.90
2314;DHT22;42279;51.388;7.000;2023-07-13T17:53:03;21.30;99.90
2314;DHT22;42279;51.388;7.000;2023-07-13T17:55:31;21.30;99.90
2314;DHT22;42279;51.388;7.000;2023-07-13T17:57:57;21.40;99.90
2314;DHT22;42279;51.388;7.000;2023-07-13T18:00:23;21.40;99.90
2314;DHT22;42279;51.388;7.000;2023-07-13T18:09:56;21.80;99.90
2314;DHT22;42279;51.388;7.000;2023-07-13T18:59:50;20.20;99.90
2314;DHT22;42279;51.388;7.000;2023-07-13T19:02:16;20.10;99.90
2314;DHT22;42279;51.388;7.000;2023-07-13T19:04:44;20.00;99.90
2314;DHT22;42279;51.388;7.000;2023-07-13T19:07:11;20.00;99.90
2314;DHT22;42279;51.388;7.000;2023-07-13T19:09:38;20.00;99.90
2314;DHT22;42279;51.388;7.000;2023-07-13T19:12:19;19.90;99.90
2314;DHT22;42279;51.388;7.000;2023-07-13T19:14:48;19.80;99.90
2314;DHT22;42279;51.388;7.000;2023-07-13T19:17:15;19.70;99.90
2314;DHT22;42279;51.388;7.000;2023-07-13T19:19:40;19.70;99.90
2314;DHT22;42279;51.388;7.000;2023-07-13T19:22:07;19.70;99.90
2314;DHT22;42279;51.388;7.000;2023-07-13T19:24:36;19.70;99.90
2314;DHT22;42279;51.388;7.000;2023-07-13T19:27:02;19.60;99.90
2314;DHT22;42279;51.388;7.000;2023-07-13T19:29:29;19.60;99.90
2314;DHT22;42279;51.388;7.000;2023-07-13T19:31:55;19.70;99.90
2314;DHT22;42279;51.388;7.000;2023-07-13T19:34:26;19.70;99.90
2314;DHT22;42279;51.388;7.000;2023-07-13T19:37:03;19.60;99.90
2314;DHT22;42279;51.388;7.000;2023-07-13T19:39:39;19.40;99.90
2314;DHT22;42279;51.388;7.000;2023-07-13T19:42:17;19.40;99.90
2314;DHT22;42279;51.388;7.000;2023-07-13T19:44:43;19.40;99.90
2314;DHT22;42279;51.388;7.000;2023-07-13T19:47:19;19.30;99.90
2314;DHT22;42279;51.388;7.000;2023-07-13T19:49:45;19.20;99.90
2314;DHT22;42279;51.388;7.000;2023-07-13T19:52:16;19.10;99.90
2314;DHT22;42279;51.388;7.000;2023-07-13T19:54:43;18.90;99.90
2314;DHT22;42279;51.388;7.000;2023-07-13T19:57:16;18.90;99.90
2314;DHT22;42279;51.388;7.000;2023-07-13T19:59:43;18.90;99.90
2314;DHT22;42279;51.388;7.000;2023-07-13T20:02:10;18.80;99.90
2314;DHT22;42279;51.388;7.000;2023-07-13T20:04:37;18.80;99.90
2314;DHT22;42279;51.388;7.000;2023-07-13T20:07:02;18.80;99.90
2314;DHT22;42279;51.388;7.000;2023-07-13T20:09:29;18.70;99.90
2314;DHT22;42279;51.388;7.000;2023-07-13T20:12:00;18.70;99.90
2314;DHT22;42279;51.388;7.000;2023-07-13T20:14:26;18.70;99.90
2314;DHT22;42279;51.388;7.000;2023-07-13T20:17:01;18.50;99.90
2314;DHT22;42279;51.388;7.000;2023-07-13T20:19:31;18.60;99.90
2314;DHT22;42279;51.388;7.000;2023-07-13T20:21:57;18.60;99.90
2314;DHT22;42279;51.388;7.000;2023-07-13T20:24:23;18.50;99.90
2314;DHT22;42279;51.388;7.000;2023-07-13T20:26:49;18.40;99.90
2314;DHT22;42279;51.388;7.000;2023-07-13T20:56:18;18.30;99.90
2314;DHT22;42279;51.388;7.000;2023-07-13T20:58:46;18.30;99.90
2314;DHT22;42279;51.388;7.000;2023-07-13T21:01:20;18.20;99.90
2314;DHT22;42279;51.388;7.000;2023-07-13T21:03:46;18.20;99.90
2314;DHT22;42279;51.388;7.000;2023-07-13T21:06:18;18.20;99.90
2314;DHT22;42279;51.388;7.000;2023-07-13T21:08:44;18.20;99.90
2314;DHT22;42279;51.388;7.000;2023-07-13T21:11:11;18.30;99.90
2314;DHT22;42279;51.388;7.000;2023-07-13T21:13:36;18.30;99.90
2314;DHT22;42279;51.388;7.000;2023-07-13T21:16:28;18.30;99.90
2314;DHT22;42279;51.388;7.000;2023-07-13T21:18:55;18.20;99.90
2314;DHT22;42279;51.388;7.000;2023-07-13T21:21:22;18.20;99.90
2314;DHT22;42279;51.388;7.000;2023-07-13T21:23:49;18.20;99.90
2314;DHT22;42279;51.388;7.000;2023-07-13T21:26:17;18.30;99.90
2314;DHT22;42279;51.388;7.000;2023-07-13T21:28:44;18.20;99.90
2314;DHT22;42279;51.388;7.000;2023-07-13T21:31:32;18.20;99.90
2314;DHT22;42279;51.388;7.000;2023-07-13T21:34:01;18.20;99.90
2314;DHT22;42279;51.388;7.000;2023-07-13T21:36:29;18.10;99.90
2314;DHT22;42279;51.388;7.000;2023-07-13T21:39:05;18.00;99.90
2314;DHT22;42279;51.388;7.000;2023-07-13T21:41:34;17.80;99.90
2314;DHT22;42279;51.388;7.000;2023-07-13T21:44:01;17.80;99.90
2314;DHT22;42279;51.388;7.000;2023-07-13T21:46:28;17.80;99.90
2314;DHT22;42279;51.388;7.000;2023-07-13T21:48:55;17.80;99.90
2314;DHT22;42279;51.388;7.000;2023-07-13T21:51:23;17.80;99.90
2314;DHT22;42279;51.388;7.000;2023-07-13T21:53:49;17.80;99.90
2314;DHT22;42279;51.388;7.000;2023-07-13T21:56:20;17.80;99.90
2314;DHT22;42279;51.388;7.000;2023-07-13T21:58:47;17.60;99.90
2314;DHT22;42279;51.388;7.000;2023-07-13T22:01:25;17.60;99.90
2314;DHT22;42279;51.388;7.000;2023-07-13T22:03:57;17.50;99.90
2314;DHT22;42279;51.388;7.000;2023-07-13T22:06:30;17.40;99.90
2314;DHT22;42279;51.388;7.000;2023-07-13T22:08:56;17.50;99.90
2314;DHT22;42279;51.388;7.000;2023-07-13T22:11:25;17.60;99.90
2314;DHT22;42279;51.388;7.000;2023-07-13T22:13:52;17.70;99.90
2314;DHT22;42279;51.388;7.000;2023-07-13T22:16:21;17.70;99.90
2314;DHT22;42279;51.388;7.000;2023-07-13T22:18:48;17.70;99.90
2314;DHT22;42279;51.388;7.000;2023-07-13T22:48:20;16.90;99.90
2314;DHT22;42279;51.388;7.000;2023-07-13T22:50:46;16.70;99.90
2314;DHT22;42279;51.388;7.000;2023-07-13T22:53:23;16.70;99.90
2314;DHT22;42279;51.388;7.000;2023-07-13T23:18:17;16.50;99.90
2314;DHT22;42279;51.388;7.000;2023-07-13T23:20:43;16.50;99.90
2314;DHT22;42279;51.388;7.000;2023-07-13T23:23:14;16.50;99.90
2314;DHT22;42279;51.388;7.000;2023-07-13T23:25:40;16.50;99.90
2314;DHT22;42279;51.388;7.000;2023-07-13T23:28:07;16.60;99.90
2314;DHT22;42279;51.388;7.000;2023-07-13T23:30:32;16.60;99.90
2314;DHT22;42279;51.388;7.000;2023-07-13T23:33:02;16.60;99.90
2314;DHT22;42279;51.388;7.000;2023-07-13T23:35:28;16.60;99.90
2314;DHT22;42279;51.388;7.000;2023-07-13T23:37:54;16.60;99.90
2314;DHT22;42279;51.388;7.000;2023-07-13T23:40:22;16.60;99.90
2314;DHT22;42279;51.388;7.000;2023-07-13T23:42:48;16.60;99.90
2314;DHT22;42279;51.388;7.000;2023-07-13T23:45:20;16.70;99.90
2314;DHT22;42279;51.388;7.000;2023-07-13T23:47:49;16.70;99.90
2314;DHT22;42279;51.388;7.000;2023-07-13T23:50:23;16.60;99.90
2314;DHT22;42279;51.388;7.000;2023-07-13T23:52:50;16.50;99.90
2314;DHT22;42279;51.388;7.000;2023-07-13T23:55:22;16.40;99.90
2314;DHT22;42279;51.388;7.000;2023-07-13T23:57:48;16.60;99.90
